sensor_id;sensor_type;location;lat;lon;timestamp;temperature;humidity
73137;DHT22;67767;45.636;11.756;2023-03-16T00:00:10;9.30;73.80
73137;DHT22;67767;45.636;11.756;2023-03-16T00:02:39;9.30;72.90
73137;DHT22;67767;45.636;11.756;2023-03-16T00:05:06;9.50;72.30
73137;DHT22;67767;45.636;11.756;2023-03-16T00:07:31;9.30;72.80
73137;DHT22;67767;45.636;11.756;2023-03-16T00:09:58;9.30;72.30
73137;DHT22;67767;45.636;11.756;2023-03-16T00:12:24;9.40;72.40
73137;DHT22;67767;45.636;11.756;2023-03-16T00:14:51;9.30;72.90
73137;DHT22;67767;45.636;11.756;2023-03-16T00:17:18;9.30;72.40
73137;DHT22;67767;45.636;11.756;2023-03-16T00:19:52;9.10;71.00
73137;DHT22;67767;45.636;11.756;2023-03-16T00:22:28;9.20;70.00
73137;DHT22;67767;45.636;11.756;2023-03-16T00:24:54;9.20;59.40
73137;DHT22;67767;45.636;11.756;2023-03-16T00:27:21;9.30;57.20
73137;DHT22;67767;45.636;11.756;2023-03-16T00:29:48;9.30;57.30
73137;DHT22;67767;45.636;11.756;2023-03-16T00:32:16;9.30;53.60
73137;DHT22;67767;45.636;11.756;2023-03-16T00:34:43;9.40;52.30
73137;DHT22;67767;45.636;11.756;2023-03-16T00:37:11;9.40;50.90
73137;DHT22;67767;45.636;11.756;2023-03-16T00:39:40;9.50;51.60
73137;DHT22;67767;45.636;11.756;2023-03-16T00:42:07;9.50;51.40
73137;DHT22;67767;45.636;11.756;2023-03-16T00:44:36;9.50;51.50
73137;DHT22;67767;45.636;11.756;2023-03-16T00:47:03;9.40;53.00
73137;DHT22;67767;45.636;11.756;2023-03-16T00:49:32;9.40;52.60
73137;DHT22;67767;45.636;11.756;2023-03-16T00:52:00;9.40;52.50
73137;DHT22;67767;45.636;11.756;2023-03-16T00:54:27;9.40;51.20
73137;DHT22;67767;45.636;11.756;2023-03-16T00:56:53;9.30;51.00
73137;DHT22;67767;45.636;11.756;2023-03-16T00:59:18;9.30;50.80
73137;DHT22;67767;45.636;11.756;2023-03-16T01:01:46;9.30;49.60
73137;DHT22;67767;45.636;11.756;2023-03-16T01:04:11;9.30;49.70
73137;DHT22;67767;45.636;11.756;2023-03-16T01:06:38;9.30;50.00
73137;DHT22;67767;45.636;11.756;2023-03-16T01:09:04;9.20;50.20
73137;DHT22;67767;45.636;11.756;2023-03-16T01:11:30;9.10;50.10
73137;DHT22;67767;45.636;11.756;2023-03-16T01:13:58;9.10;50.70
73137;DHT22;67767;45.636;11.756;2023-03-16T01:16:24;9.10;50.40
73137;DHT22;67767;45.636;11.756;2023-03-16T01:18:51;9.10;50.00
73137;DHT22;67767;45.636;11.756;2023-03-16T01:21:18;9.00;50.50
73137;DHT22;67767;45.636;11.756;2023-03-16T01:23:44;8.90;52.40
73137;DHT22;67767;45.636;11.756;2023-03-16T01:26:10;8.80;52.80
73137;DHT22;67767;45.636;11.756;2023-03-16T01:28:36;8.70;52.80
73137;DHT22;67767;45.636;11.756;2023-03-16T01:31:08;8.80;51.10
73137;DHT22;67767;45.636;11.756;2023-03-16T01:33:34;8.80;51.60
73137;DHT22;67767;45.636;11.756;2023-03-16T01:36:03;8.60;52.20
73137;DHT22;67767;45.636;11.756;2023-03-16T01:38:29;8.60;52.10
73137;DHT22;67767;45.636;11.756;2023-03-16T01:40:55;8.50;52.50
73137;DHT22;67767;45.636;11.756;2023-03-16T01:43:23;8.60;53.20
73137;DHT22;67767;45.636;11.756;2023-03-16T01:48:57;8.50;52.70
73137;DHT22;67767;45.636;11.756;2023-03-16T01:51:36;8.60;53.50
73137;DHT22;67767;45.636;11.756;2023-03-16T01:54:16;8.60;54.30
73137;DHT22;67767;45.636;11.756;2023-03-16T01:56:51;8.50;53.00
73137;DHT22;67767;45.636;11.756;2023-03-16T01:59:22;8.50;54.00
73137;DHT22;67767;45.636;11.756;2023-03-16T02:01:50;8.50;53.50
73137;DHT22;67767;45.636;11.756;2023-03-16T02:07:07;8.50;55.10
73137;DHT22;67767;45.636;11.756;2023-03-16T02:09:38;8.40;55.60
73137;DHT22;67767;45.636;11.756;2023-03-16T02:12:08;8.50;54.70
73137;DHT22;67767;45.636;11.756;2023-03-16T02:14:34;8.40;56.50
73137;DHT22;67767;45.636;11.756;2023-03-16T02:17:00;8.30;55.40
73137;DHT22;67767;45.636;11.756;2023-03-16T02:22:05;8.40;55.70
73137;DHT22;67767;45.636;11.756;2023-03-16T02:24:31;8.20;57.20
73137;DHT22;67767;45.636;11.756;2023-03-16T02:27:09;8.20;56.90
73137;DHT22;67767;45.636;11.756;2023-03-16T02:29:50;8.30;56.60
73137;DHT22;67767;45.636;11.756;2023-03-16T02:32:19;8.20;55.70
73137;DHT22;67767;45.636;11.756;2023-03-16T02:34:45;8.20;54.50
73137;DHT22;67767;45.636;11.756;2023-03-16T02:37:11;8.10;55.10
73137;DHT22;67767;45.636;11.756;2023-03-16T02:39:36;8.10;57.00
73137;DHT22;67767;45.636;11.756;2023-03-16T02:42:03;8.00;57.10
73137;DHT22;67767;45.636;11.756;2023-03-16T02:44:36;8.10;55.90
73137;DHT22;67767;45.636;11.756;2023-03-16T02:47:12;7.90;56.00
73137;DHT22;67767;45.636;11.756;2023-03-16T02:49:42;8.00;56.10
73137;DHT22;67767;45.636;11.756;2023-03-16T02:52:09;8.00;55.10
73137;DHT22;67767;45.636;11.756;2023-03-16T02:54:35;7.90;54.90
73137;DHT22;67767;45.636;11.756;2023-03-16T02:57:01;7.80;55.90
73137;DHT22;67767;45.636;11.756;2023-03-16T02:59:27;7.70;56.60
73137;DHT22;67767;45.636;11.756;2023-03-16T03:01:53;7.70;56.40
73137;DHT22;67767;45.636;11.756;2023-03-16T03:04:18;7.60;57.20
73137;DHT22;67767;45.636;11.756;2023-03-16T03:06:47;7.60;56.00
73137;DHT22;67767;45.636;11.756;2023-03-16T03:09:13;7.70;56.10
73137;DHT22;67767;45.636;11.756;2023-03-16T03:11:39;7.60;56.20
73137;DHT22;67767;45.636;11.756;2023-03-16T03:14:05;7.60;56.20
73137;DHT22;67767;45.636;11.756;2023-03-16T03:16:31;7.50;56.00
73137;DHT22;67767;45.636;11.756;2023-03-16T03:18:57;7.50;56.40
73137;DHT22;67767;45.636;11.756;2023-03-16T03:21:23;7.60;54.80
73137;DHT22;67767;45.636;11.756;2023-03-16T03:23:50;7.50;56.00
73137;DHT22;67767;45.636;11.756;2023-03-16T03:26:16;7.40;57.40
73137;DHT22;67767;45.636;11.756;2023-03-16T03:28:43;7.50;57.00
73137;DHT22;67767;45.636;11.756;2023-03-16T03:31:17;7.40;56.00
73137;DHT22;67767;45.636;11.756;2023-03-16T03:33:43;7.40;57.30
73137;DHT22;67767;45.636;11.756;2023-03-16T03:36:10;7.30;56.80
73137;DHT22;67767;45.636;11.756;2023-03-16T03:38:36;7.30;57.50
73137;DHT22;67767;45.636;11.756;2023-03-16T03:41:03;7.00;57.00
73137;DHT22;67767;45.636;11.756;2023-03-16T03:43:29;7.00;58.80
73137;DHT22;67767;45.636;11.756;2023-03-16T03:45:59;6.90;58.90
73137;DHT22;67767;45.636;11.756;2023-03-16T03:48:27;6.90;58.70
73137;DHT22;67767;45.636;11.756;2023-03-16T03:50:53;6.90;58.80
73137;DHT22;67767;45.636;11.756;2023-03-16T03:53:19;6.80;58.70
73137;DHT22;67767;45.636;11.756;2023-03-16T03:55:45;6.90;58.30
73137;DHT22;67767;45.636;11.756;2023-03-16T03:58:12;6.70;57.80
73137;DHT22;67767;45.636;11.756;2023-03-16T04:00:38;6.80;57.60
73137;DHT22;67767;45.636;11.756;2023-03-16T04:03:04;6.80;56.70
73137;DHT22;67767;45.636;11.756;2023-03-16T04:05:31;6.80;56.60
73137;DHT22;67767;45.636;11.756;2023-03-16T04:07:57;6.80;55.80
73137;DHT22;67767;45.636;11.756;2023-03-16T04:10:24;6.80;57.80
73137;DHT22;67767;45.636;11.756;2023-03-16T04:12:50;6.80;57.50
73137;DHT22;67767;45.636;11.756;2023-03-16T04:15:15;6.90;58.70
73137;DHT22;67767;45.636;11.756;2023-03-16T04:17:41;6.80;56.70
73137;DHT22;67767;45.636;11.756;2023-03-16T04:20:07;6.70;56.40
73137;DHT22;67767;45.636;11.756;2023-03-16T04:22:39;6.80;55.30
73137;DHT22;67767;45.636;11.756;2023-03-16T04:25:04;6.90;55.90
73137;DHT22;67767;45.636;11.756;2023-03-16T04:27:30;6.80;55.90
73137;DHT22;67767;45.636;11.756;2023-03-16T04:30:03;6.90;56.10
73137;DHT22;67767;45.636;11.756;2023-03-16T04:32:30;6.90;55.50
73137;DHT22;67767;45.636;11.756;2023-03-16T04:34:56;7.00;55.30
73137;DHT22;67767;45.636;11.756;2023-03-16T04:37:22;6.90;54.30
73137;DHT22;67767;45.636;11.756;2023-03-16T04:39:48;7.00;54.20
73137;DHT22;67767;45.636;11.756;2023-03-16T04:42:13;6.90;54.30
73137;DHT22;67767;45.636;11.756;2023-03-16T04:44:39;6.90;54.50
73137;DHT22;67767;45.636;11.756;2023-03-16T04:47:12;6.80;54.00
73137;DHT22;67767;45.636;11.756;2023-03-16T04:49:38;6.70;53.80
73137;DHT22;67767;45.636;11.756;2023-03-16T04:52:04;6.80;53.10
73137;DHT22;67767;45.636;11.756;2023-03-16T04:54:30;6.80;53.10
73137;DHT22;67767;45.636;11.756;2023-03-16T04:56:56;6.80;53.20
73137;DHT22;67767;45.636;11.756;2023-03-16T04:59:23;6.70;53.50
73137;DHT22;67767;45.636;11.756;2023-03-16T05:01:48;6.70;53.90
73137;DHT22;67767;45.636;11.756;2023-03-16T05:04:14;6.70;54.10
73137;DHT22;67767;45.636;11.756;2023-03-16T05:06:40;6.70;54.20
73137;DHT22;67767;45.636;11.756;2023-03-16T05:09:06;6.70;53.30
73137;DHT22;67767;45.636;11.756;2023-03-16T05:11:34;6.70;52.70
73137;DHT22;67767;45.636;11.756;2023-03-16T05:13:59;6.60;51.90
73137;DHT22;67767;45.636;11.756;2023-03-16T05:16:29;6.50;52.20
73137;DHT22;67767;45.636;11.756;2023-03-16T05:18:59;6.60;51.90
73137;DHT22;67767;45.636;11.756;2023-03-16T05:21:26;6.60;51.60
73137;DHT22;67767;45.636;11.756;2023-03-16T05:23:56;6.70;52.10
73137;DHT22;67767;45.636;11.756;2023-03-16T05:28:50;6.80;51.70
73137;DHT22;67767;45.636;11.756;2023-03-16T05:31:16;6.70;51.00
73137;DHT22;67767;45.636;11.756;2023-03-16T05:33:43;6.70;52.00
73137;DHT22;67767;45.636;11.756;2023-03-16T05:36:09;6.80;51.10
73137;DHT22;67767;45.636;11.756;2023-03-16T05:38:35;7.00;50.80
73137;DHT22;67767;45.636;11.756;2023-03-16T05:41:01;7.00;50.20
73137;DHT22;67767;45.636;11.756;2023-03-16T05:43:29;7.00;50.20
73137;DHT22;67767;45.636;11.756;2023-03-16T05:45:55;6.90;50.10
73137;DHT22;67767;45.636;11.756;2023-03-16T05:48:22;7.00;49.20
73137;DHT22;67767;45.636;11.756;2023-03-16T05:50:51;7.20;50.00
73137;DHT22;67767;45.636;11.756;2023-03-16T05:53:17;7.20;49.60
73137;DHT22;67767;45.636;11.756;2023-03-16T05:55:43;7.60;49.60
73137;DHT22;67767;45.636;11.756;2023-03-16T05:58:09;7.60;48.90
73137;DHT22;67767;45.636;11.756;2023-03-16T06:00:36;7.50;49.40
73137;DHT22;67767;45.636;11.756;2023-03-16T06:03:03;7.40;50.60
73137;DHT22;67767;45.636;11.756;2023-03-16T06:05:29;7.20;51.40
73137;DHT22;67767;45.636;11.756;2023-03-16T06:07:56;7.10;52.00
73137;DHT22;67767;45.636;11.756;2023-03-16T06:10:22;7.30;53.00
73137;DHT22;67767;45.636;11.756;2023-03-16T06:12:48;7.40;52.70
73137;DHT22;67767;45.636;11.756;2023-03-16T06:15:14;7.40;52.90
73137;DHT22;67767;45.636;11.756;2023-03-16T06:17:40;7.30;54.60
73137;DHT22;67767;45.636;11.756;2023-03-16T06:20:07;7.40;53.30
73137;DHT22;67767;45.636;11.756;2023-03-16T06:22:39;7.50;53.40
73137;DHT22;67767;45.636;11.756;2023-03-16T06:25:06;7.70;54.20
73137;DHT22;67767;45.636;11.756;2023-03-16T06:27:32;7.90;54.10
73137;DHT22;67767;45.636;11.756;2023-03-16T06:29:58;8.00;52.80
73137;DHT22;67767;45.636;11.756;2023-03-16T06:32:23;8.20;51.10
73137;DHT22;67767;45.636;11.756;2023-03-16T06:34:49;8.40;51.70
73137;DHT22;67767;45.636;11.756;2023-03-16T06:37:16;8.50;50.50
73137;DHT22;67767;45.636;11.756;2023-03-16T06:39:41;8.60;51.10
73137;DHT22;67767;45.636;11.756;2023-03-16T06:42:09;8.60;49.40
73137;DHT22;67767;45.636;11.756;2023-03-16T06:44:35;8.80;49.30
73137;DHT22;67767;45.636;11.756;2023-03-16T06:47:02;8.90;48.50
73137;DHT22;67767;45.636;11.756;2023-03-16T06:49:28;8.90;48.20
73137;DHT22;67767;45.636;11.756;2023-03-16T06:51:54;9.10;47.80
73137;DHT22;67767;45.636;11.756;2023-03-16T06:54:23;9.20;47.30
73137;DHT22;67767;45.636;11.756;2023-03-16T06:56:48;9.30;47.30
73137;DHT22;67767;45.636;11.756;2023-03-16T06:59:14;9.50;46.70
73137;DHT22;67767;45.636;11.756;2023-03-16T07:01:40;9.60;47.40
73137;DHT22;67767;45.636;11.756;2023-03-16T07:04:06;9.70;46.70
73137;DHT22;67767;45.636;11.756;2023-03-16T07:06:32;9.90;47.00
73137;DHT22;67767;45.636;11.756;2023-03-16T07:08:58;9.80;47.80
73137;DHT22;67767;45.636;11.756;2023-03-16T07:11:25;9.90;48.80
73137;DHT22;67767;45.636;11.756;2023-03-16T07:13:51;10.10;48.70
73137;DHT22;67767;45.636;11.756;2023-03-16T07:16:17;10.20;48.60
73137;DHT22;67767;45.636;11.756;2023-03-16T07:18:43;10.50;48.70
73137;DHT22;67767;45.636;11.756;2023-03-16T07:21:09;10.70;48.70
73137;DHT22;67767;45.636;11.756;2023-03-16T07:23:35;10.80;48.90
73137;DHT22;67767;45.636;11.756;2023-03-16T07:26:01;11.00;49.20
73137;DHT22;67767;45.636;11.756;2023-03-16T07:28:28;11.30;49.50
73137;DHT22;67767;45.636;11.756;2023-03-16T07:30:54;11.30;47.20
73137;DHT22;67767;45.636;11.756;2023-03-16T07:33:20;11.50;47.50
73137;DHT22;67767;45.636;11.756;2023-03-16T07:35:45;11.60;48.70
73137;DHT22;67767;45.636;11.756;2023-03-16T07:38:11;11.70;51.30
73137;DHT22;67767;45.636;11.756;2023-03-16T07:40:40;11.80;52.20
73137;DHT22;67767;45.636;11.756;2023-03-16T07:43:06;11.90;52.30
73137;DHT22;67767;45.636;11.756;2023-03-16T07:45:32;11.90;51.50
73137;DHT22;67767;45.636;11.756;2023-03-16T07:47:57;12.10;50.60
73137;DHT22;67767;45.636;11.756;2023-03-16T07:50:23;12.10;51.50
73137;DHT22;67767;45.636;11.756;2023-03-16T07:52:49;12.30;51.20
73137;DHT22;67767;45.636;11.756;2023-03-16T07:55:15;12.30;50.90
73137;DHT22;67767;45.636;11.756;2023-03-16T07:57:41;12.20;47.50
73137;DHT22;67767;45.636;11.756;2023-03-16T08:00:12;12.30;47.40
73137;DHT22;67767;45.636;11.756;2023-03-16T08:02:39;12.20;47.40
73137;DHT22;67767;45.636;11.756;2023-03-16T08:05:05;12.30;48.50
73137;DHT22;67767;45.636;11.756;2023-03-16T08:07:30;12.40;47.50
73137;DHT22;67767;45.636;11.756;2023-03-16T08:09:56;12.50;49.20
73137;DHT22;67767;45.636;11.756;2023-03-16T08:12:22;12.70;47.30
73137;DHT22;67767;45.636;11.756;2023-03-16T08:14:48;12.60;47.70
73137;DHT22;67767;45.636;11.756;2023-03-16T08:17:13;12.60;49.20
73137;DHT22;67767;45.636;11.756;2023-03-16T08:19:39;12.70;48.60
73137;DHT22;67767;45.636;11.756;2023-03-16T08:22:05;12.90;49.10
73137;DHT22;67767;45.636;11.756;2023-03-16T08:24:31;12.80;50.60
73137;DHT22;67767;45.636;11.756;2023-03-16T08:26:58;12.90;49.50
73137;DHT22;67767;45.636;11.756;2023-03-16T08:29:25;13.00;49.50
73137;DHT22;67767;45.636;11.756;2023-03-16T08:31:54;13.10;50.00
73137;DHT22;67767;45.636;11.756;2023-03-16T08:34:21;13.40;50.40
73137;DHT22;67767;45.636;11.756;2023-03-16T08:36:47;13.40;51.00
73137;DHT22;67767;45.636;11.756;2023-03-16T08:39:13;13.40;51.10
73137;DHT22;67767;45.636;11.756;2023-03-16T08:41:40;13.50;48.80
73137;DHT22;67767;45.636;11.756;2023-03-16T08:44:08;13.60;50.40
73137;DHT22;67767;45.636;11.756;2023-03-16T08:46:34;13.70;49.40
73137;DHT22;67767;45.636;11.756;2023-03-16T08:49:00;13.50;47.40
73137;DHT22;67767;45.636;11.756;2023-03-16T08:51:27;13.70;48.90
73137;DHT22;67767;45.636;11.756;2023-03-16T08:53:54;13.70;45.00
73137;DHT22;67767;45.636;11.756;2023-03-16T08:56:20;13.80;44.60
73137;DHT22;67767;45.636;11.756;2023-03-16T08:58:46;13.70;42.60
73137;DHT22;67767;45.636;11.756;2023-03-16T09:01:14;13.60;43.50
73137;DHT22;67767;45.636;11.756;2023-03-16T09:03:40;13.80;45.10
73137;DHT22;67767;45.636;11.756;2023-03-16T09:06:11;14.00;44.90
73137;DHT22;67767;45.636;11.756;2023-03-16T09:08:38;13.90;40.40
73137;DHT22;67767;45.636;11.756;2023-03-16T09:11:06;13.80;40.40
73137;DHT22;67767;45.636;11.756;2023-03-16T09:13:34;13.90;40.70
73137;DHT22;67767;45.636;11.756;2023-03-16T09:16:01;14.10;41.80
73137;DHT22;67767;45.636;11.756;2023-03-16T09:18:27;14.10;42.90
73137;DHT22;67767;45.636;11.756;2023-03-16T09:20:57;14.20;42.00
73137;DHT22;67767;45.636;11.756;2023-03-16T09:23:23;13.30;40.40
73137;DHT22;67767;45.636;11.756;2023-03-16T09:25:50;13.70;39.60
73137;DHT22;67767;45.636;11.756;2023-03-16T09:28:17;14.00;39.60
73137;DHT22;67767;45.636;11.756;2023-03-16T09:30:44;13.90;38.40
73137;DHT22;67767;45.636;11.756;2023-03-16T09:33:10;13.80;39.90
73137;DHT22;67767;45.636;11.756;2023-03-16T09:35:36;14.20;40.30
73137;DHT22;67767;45.636;11.756;2023-03-16T09:38:02;14.10;38.90
73137;DHT22;67767;45.636;11.756;2023-03-16T09:40:29;14.40;41.70
73137;DHT22;67767;45.636;11.756;2023-03-16T09:46:33;13.90;39.00
73137;DHT22;67767;45.636;11.756;2023-03-16T09:49:01;14.50;40.90
73137;DHT22;67767;45.636;11.756;2023-03-16T09:54:12;14.90;40.30
73137;DHT22;67767;45.636;11.756;2023-03-16T09:56:41;15.10;40.30
73137;DHT22;67767;45.636;11.756;2023-03-16T09:59:12;15.00;38.20
73137;DHT22;67767;45.636;11.756;2023-03-16T10:04:42;15.00;40.00
73137;DHT22;67767;45.636;11.756;2023-03-16T10:07:21;15.20;39.70
73137;DHT22;67767;45.636;11.756;2023-03-16T10:09:56;15.30;41.10
73137;DHT22;67767;45.636;11.756;2023-03-16T10:12:28;15.30;41.10
73137;DHT22;67767;45.636;11.756;2023-03-16T10:15:07;15.30;39.50
73137;DHT22;67767;45.636;11.756;2023-03-16T10:20:17;15.20;40.70
73137;DHT22;67767;45.636;11.756;2023-03-16T10:22:46;15.20;40.50
73137;DHT22;67767;45.636;11.756;2023-03-16T10:27:50;14.90;40.00
73137;DHT22;67767;45.636;11.756;2023-03-16T10:30:35;15.20;41.30
73137;DHT22;67767;45.636;11.756;2023-03-16T10:36:22;14.60;41.70
73137;DHT22;67767;45.636;11.756;2023-03-16T10:39:04;15.10;42.40
73137;DHT22;67767;45.636;11.756;2023-03-16T10:43:59;15.00;39.90
73137;DHT22;67767;45.636;11.756;2023-03-16T10:46:37;15.40;39.00
73137;DHT22;67767;45.636;11.756;2023-03-16T10:49:04;15.60;39.40
73137;DHT22;67767;45.636;11.756;2023-03-16T10:51:32;15.30;40.00
73137;DHT22;67767;45.636;11.756;2023-03-16T10:54:24;15.40;40.60
73137;DHT22;67767;45.636;11.756;2023-03-16T10:56:51;15.60;39.10
73137;DHT22;67767;45.636;11.756;2023-03-16T10:59:30;15.40;39.80
73137;DHT22;67767;45.636;11.756;2023-03-16T11:01:58;15.80;37.00
73137;DHT22;67767;45.636;11.756;2023-03-16T11:04:29;16.00;37.50
73137;DHT22;67767;45.636;11.756;2023-03-16T11:06:56;16.60;39.70
73137;DHT22;67767;45.636;11.756;2023-03-16T11:09:31;17.00;36.40
73137;DHT22;67767;45.636;11.756;2023-03-16T11:11:57;17.10;37.10
73137;DHT22;67767;45.636;11.756;2023-03-16T11:14:27;17.50;36.90
73137;DHT22;67767;45.636;11.756;2023-03-16T11:17:05;17.60;34.00
73137;DHT22;67767;45.636;11.756;2023-03-16T11:19:38;17.30;35.30
73137;DHT22;67767;45.636;11.756;2023-03-16T11:22:22;17.50;29.50
73137;DHT22;67767;45.636;11.756;2023-03-16T11:30:22;17.50;34.70
73137;DHT22;67767;45.636;11.756;2023-03-16T11:32:51;17.80;36.80
73137;DHT22;67767;45.636;11.756;2023-03-16T11:38:18;18.50;28.70
73137;DHT22;67767;45.636;11.756;2023-03-16T11:43:50;17.10;29.40
73137;DHT22;67767;45.636;11.756;2023-03-16T11:46:36;17.90;30.40
73137;DHT22;67767;45.636;11.756;2023-03-16T11:49:54;18.20;28.10
73137;DHT22;67767;45.636;11.756;2023-03-16T11:52:35;18.30;29.20
73137;DHT22;67767;45.636;11.756;2023-03-16T11:58:20;18.20;27.10
73137;DHT22;67767;45.636;11.756;2023-03-16T12:01:07;18.80;27.60
73137;DHT22;67767;45.636;11.756;2023-03-16T12:06:32;19.40;26.70
73137;DHT22;67767;45.636;11.756;2023-03-16T12:17:27;19.50;26.30
73137;DHT22;67767;45.636;11.756;2023-03-16T12:20:15;19.70;29.90
73137;DHT22;67767;45.636;11.756;2023-03-16T12:23:07;19.70;28.30
73137;DHT22;67767;45.636;11.756;2023-03-16T12:25:37;19.10;27.10
73137;DHT22;67767;45.636;11.756;2023-03-16T12:28:08;19.50;26.80
73137;DHT22;67767;45.636;11.756;2023-03-16T12:33:30;19.80;25.40
73137;DHT22;67767;45.636;11.756;2023-03-16T12:38:39;20.20;25.80
73137;DHT22;67767;45.636;11.756;2023-03-16T12:41:24;20.90;23.10
73137;DHT22;67767;45.636;11.756;2023-03-16T12:44:11;20.90;24.90
73137;DHT22;67767;45.636;11.756;2023-03-16T12:47:03;20.60;26.50
73137;DHT22;67767;45.636;11.756;2023-03-16T12:49:32;21.70;23.10
73137;DHT22;67767;45.636;11.756;2023-03-16T12:52:08;21.00;23.10
73137;DHT22;67767;45.636;11.756;2023-03-16T12:54:34;20.60;23.90
73137;DHT22;67767;45.636;11.756;2023-03-16T12:57:07;20.90;25.30
73137;DHT22;67767;45.636;11.756;2023-03-16T12:59:43;20.40;25.40
73137;DHT22;67767;45.636;11.756;2023-03-16T13:02:19;20.10;24.70
73137;DHT22;67767;45.636;11.756;2023-03-16T13:04:56;19.90;25.20
73137;DHT22;67767;45.636;11.756;2023-03-16T13:07:25;21.10;24.50
73137;DHT22;67767;45.636;11.756;2023-03-16T13:10:12;20.90;22.80
73137;DHT22;67767;45.636;11.756;2023-03-16T13:12:39;21.30;22.00
73137;DHT22;67767;45.636;11.756;2023-03-16T13:15:25;22.60;23.00
73137;DHT22;67767;45.636;11.756;2023-03-16T13:20:55;23.10;20.90
73137;DHT22;67767;45.636;11.756;2023-03-16T13:23:55;22.70;21.10
73137;DHT22;67767;45.636;11.756;2023-03-16T13:26:40;21.90;22.20
73137;DHT22;67767;45.636;11.756;2023-03-16T13:29:26;22.20;21.50
73137;DHT22;67767;45.636;11.756;2023-03-16T13:31:56;23.10;23.30
73137;DHT22;67767;45.636;11.756;2023-03-16T13:34:25;21.80;23.60
73137;DHT22;67767;45.636;11.756;2023-03-16T13:36:56;22.80;21.20
73137;DHT22;67767;45.636;11.756;2023-03-16T13:39:25;22.00;22.40
73137;DHT22;67767;45.636;11.756;2023-03-16T13:42:16;20.90;24.90
73137;DHT22;67767;45.636;11.756;2023-03-16T13:44:42;20.80;25.40
73137;DHT22;67767;45.636;11.756;2023-03-16T13:47:16;20.60;23.90
73137;DHT22;67767;45.636;11.756;2023-03-16T13:49:53;20.90;24.40
73137;DHT22;67767;45.636;11.756;2023-03-16T13:52:33;21.70;22.60
73137;DHT22;67767;45.636;11.756;2023-03-16T13:55:01;22.30;23.60
73137;DHT22;67767;45.636;11.756;2023-03-16T13:57:31;23.00;22.20
73137;DHT22;67767;45.636;11.756;2023-03-16T14:00:05;21.00;24.20
73137;DHT22;67767;45.636;11.756;2023-03-16T14:02:43;21.10;24.10
73137;DHT22;67767;45.636;11.756;2023-03-16T14:05:19;20.60;25.50
73137;DHT22;67767;45.636;11.756;2023-03-16T14:07:46;21.20;23.10
73137;DHT22;67767;45.636;11.756;2023-03-16T14:10:13;22.00;23.10
73137;DHT22;67767;45.636;11.756;2023-03-16T14:12:55;22.10;22.80
73137;DHT22;67767;45.636;11.756;2023-03-16T14:15:26;21.80;22.70
73137;DHT22;67767;45.636;11.756;2023-03-16T14:17:52;22.10;22.50
73137;DHT22;67767;45.636;11.756;2023-03-16T14:20:22;22.40;23.30
73137;DHT22;67767;45.636;11.756;2023-03-16T14:22:53;23.40;22.80
73137;DHT22;67767;45.636;11.756;2023-03-16T14:25:21;23.50;22.10
73137;DHT22;67767;45.636;11.756;2023-03-16T14:27:57;24.00;21.00
73137;DHT22;67767;45.636;11.756;2023-03-16T14:30:24;24.00;21.80
73137;DHT22;67767;45.636;11.756;2023-03-16T14:33:00;22.40;23.00
73137;DHT22;67767;45.636;11.756;2023-03-16T14:35:38;19.50;27.20
73137;DHT22;67767;45.636;11.756;2023-03-16T14:38:31;19.60;27.50
73137;DHT22;67767;45.636;11.756;2023-03-16T14:41:05;19.00;28.60
73137;DHT22;67767;45.636;11.756;2023-03-16T14:43:35;18.70;29.40
73137;DHT22;67767;45.636;11.756;2023-03-16T14:46:06;19.10;28.70
73137;DHT22;67767;45.636;11.756;2023-03-16T14:48:33;19.20;28.90
73137;DHT22;67767;45.636;11.756;2023-03-16T14:51:01;18.70;30.20
73137;DHT22;67767;45.636;11.756;2023-03-16T14:53:28;18.50;29.60
73137;DHT22;67767;45.636;11.756;2023-03-16T14:55:58;17.60;31.30
73137;DHT22;67767;45.636;11.756;2023-03-16T14:58:24;16.70;31.70
73137;DHT22;67767;45.636;11.756;2023-03-16T15:00:50;16.90;32.00
73137;DHT22;67767;45.636;11.756;2023-03-16T15:03:22;17.10;32.80
73137;DHT22;67767;45.636;11.756;2023-03-16T15:05:51;16.80;33.00
73137;DHT22;67767;45.636;11.756;2023-03-16T15:08:23;16.60;33.80
73137;DHT22;67767;45.636;11.756;2023-03-16T15:10:52;16.60;33.10
73137;DHT22;67767;45.636;11.756;2023-03-16T15:13:20;16.90;33.50
73137;DHT22;67767;45.636;11.756;2023-03-16T15:16:03;17.20;32.20
73137;DHT22;67767;45.636;11.756;2023-03-16T15:18:33;17.10;32.50
73137;DHT22;67767;45.636;11.756;2023-03-16T15:21:00;16.70;33.00
73137;DHT22;67767;45.636;11.756;2023-03-16T15:23:27;16.90;35.40
73137;DHT22;67767;45.636;11.756;2023-03-16T15:25:54;16.60;35.20
73137;DHT22;67767;45.636;11.756;2023-03-16T15:28:26;16.70;34.40
73137;DHT22;67767;45.636;11.756;2023-03-16T15:30:54;16.80;33.40
73137;DHT22;67767;45.636;11.756;2023-03-16T15:33:20;16.90;35.40
73137;DHT22;67767;45.636;11.756;2023-03-16T15:35:48;16.90;34.90
73137;DHT22;67767;45.636;11.756;2023-03-16T15:40:46;17.10;36.00
73137;DHT22;67767;45.636;11.756;2023-03-16T15:43:14;17.20;36.80
73137;DHT22;67767;45.636;11.756;2023-03-16T15:45:41;16.90;37.10
73137;DHT22;67767;45.636;11.756;2023-03-16T15:48:08;16.90;37.60
73137;DHT22;67767;45.636;11.756;2023-03-16T15:50:35;16.70;39.30
73137;DHT22;67767;45.636;11.756;2023-03-16T15:53:06;16.60;40.50
73137;DHT22;67767;45.636;11.756;2023-03-16T15:55:41;16.40;40.50
73137;DHT22;67767;45.636;11.756;2023-03-16T15:58:16;16.30;40.90
73137;DHT22;67767;45.636;11.756;2023-03-16T16:00:44;16.10;41.40
73137;DHT22;67767;45.636;11.756;2023-03-16T16:03:11;16.00;41.20
73137;DHT22;67767;45.636;11.756;2023-03-16T16:05:38;16.00;42.50
73137;DHT22;67767;45.636;11.756;2023-03-16T16:08:03;15.80;41.70
73137;DHT22;67767;45.636;11.756;2023-03-16T16:10:30;15.80;42.40
73137;DHT22;67767;45.636;11.756;2023-03-16T16:12:56;15.90;43.10
73137;DHT22;67767;45.636;11.756;2023-03-16T16:15:31;15.80;42.50
73137;DHT22;67767;45.636;11.756;2023-03-16T16:17:59;15.70;42.00
73137;DHT22;67767;45.636;11.756;2023-03-16T16:20:26;15.60;42.30
73137;DHT22;67767;45.636;11.756;2023-03-16T16:22:53;15.50;43.00
73137;DHT22;67767;45.636;11.756;2023-03-16T16:25:21;15.50;43.50
73137;DHT22;67767;45.636;11.756;2023-03-16T16:27:51;15.50;44.20
73137;DHT22;67767;45.636;11.756;2023-03-16T16:30:24;15.40;45.60
73137;DHT22;67767;45.636;11.756;2023-03-16T16:32:51;15.20;46.40
73137;DHT22;67767;45.636;11.756;2023-03-16T16:35:19;15.30;46.20
73137;DHT22;67767;45.636;11.756;2023-03-16T16:37:46;15.10;46.70
73137;DHT22;67767;45.636;11.756;2023-03-16T16:40:23;15.10;47.80
73137;DHT22;67767;45.636;11.756;2023-03-16T16:42:51;15.00;48.50